Ashland, OR (97520)

6:28 PM PDT on September 21, 2014 (GMT -0700)
Tolman Creek Mountain | Change Station
CLOSE
Current Station
Personal Weather Station
Location: Ashland, OR
Elevation: 2884 ft
Nearby Weather Stations

Elev 2884 ft 42.16 °N, 122.67 °W | Updated 1 minute ago

Scattered Clouds
Scattered Clouds
82.6 °F
Feels Like 81 °F
N
6.8
Wind Variable Wind from NNW

Today
High -- | Low -- °F
--% Chance of Precip.
Yesterday
High -- | Low -- °F
Precip. -- in
6:56 AM 7:09 PM
Waning Crescent, 4% visible
Pressure 29.81 in
Visibility 10.0 miles
Clouds Scattered Clouds 9000 ft
Heat Index 81 °F
Dew Point 46 °F
Humidity 28%
Rainfall 0.00 in
Snow Depth 0 in , 0 in , 0 in
UV 1 out of 12
Pollen 4.00 out of 12
Air Quality Not available.
Flu Activity Not available.
METAR KMFR 220053Z 31009KT 10SM SCT090 32/05 A2985 RMK AO2 SLP095 T03170050

More Conditions Fewer Conditions

Pressure 29.81 in
Visibility 10.0 miles
Clouds Scattered Clouds 9000 ft
Heat Index 81 °F
Dew Point 46 °F
Humidity 28%
Rainfall 0.00 in
Snow Depth 0 in , 0 in , 0 in
UV 1 out of 12
Pollen 4.00 out of 12
Air Quality Not available.
Flu Activity Not available.
METAR KMFR 220053Z 31009KT 10SM SCT090 32/05 A2985 RMK AO2 SLP095 T03170050

More Conditions Fewer Conditions

10-Day Weather Forecast

Almanac

Astronomy

Sep. 21, 2014 Rise Set
Actual Time 6:56 AM PDT 7:09 PM PDT
Civil Twilight 6:29 AM PDT 7:37 PM PDT
Nautical Twilight 5:56 AM PDT 8:10 PM PDT
Astronomical Twilight 5:22 AM PDT 8:43 PM PDT
Moon 4:33 AM PDT (9/21) 5:49 PM PDT (9/21)
Length of Visible Light 13h 08m
Length of Day
12h 12m
Tomorrow will be 2m 50s shorter.
Waning Crescent, 4% of the Moon is Illuminated
Today
Waning Crescent
Sep 24
New
Oct 1
First Quarter
Oct 8
Full
Oct 15
Last Quarter

Today's Extremes

State Highs State Lows

Community

WunderPhotos

Upload Photos

1,755,342 photos uploaded!

WunderBlogs® & News

Nearby

Snow Depth

Station Depth Elevation
Sevenmile Marsh 0 in 6200 ft
Diamond Lake 0 in 5315 ft
Greenpoint 0 in 3200 ft
Lucky Strike 1 in 5050 ft
Irish Taylor 0 in 5500 ft

Earthquake Activity

City Distance Mag. Time & Date
Eureka, California 121 miles 3.1 1:33 PM PDT
2014-09-20
Minimum magnitude displayed is 2.5.

Coastal Water Temperatures

Place Temperature
No Stations Reporting

Nearby Weather Stations